Time;durP1;ratioP1;P1;durP2;ratioP2;P2;SDS_P1;SDS_P2;PMS_P1;PMS_P2;Temp;Humidity;BMP_temperature;BMP_pressure;BME280_temperature;BME280_humidity;BME280_pressure;Samples;Min_cycle;Max_cycle;Signal;HPM_P1;HPM_P2
2024/01/29 00:00:48;;;;;;;14.43;8.70;;;0.80;99.90;;;;;;5007471;28;20487;-42
2024/01/29 00:03:15;;;;;;;14.85;8.25;;;0.80;99.90;;;;;;5007146;28;20046;-48
2024/01/29 00:05:42;;;;;;;10.32;7.97;;;0.80;99.90;;;;;;5007975;28;20077;-46
2024/01/29 00:08:09;;;;;;;12.52;7.15;;;0.70;99.90;;;;;;5010065;28;20085;-48
2024/01/29 00:10:36;;;;;;;12.98;7.75;;;0.70;99.90;;;;;;5010328;28;20458;-47
2024/01/29 00:13:03;;;;;;;12.75;7.68;;;0.70;99.90;;;;;;5006278;28;20165;-54
2024/01/29 00:15:32;;;;;;;15.07;8.43;;;0.80;99.90;;;;;;5006901;28;20130;-50
2024/01/29 00:17:59;;;;;;;13.27;8.32;;;0.70;99.90;;;;;;5006064;28;20064;-50
2024/01/29 00:20:26;;;;;;;12.88;8.80;;;0.80;99.90;;;;;;5006901;28;20046;-47
2024/01/29 00:22:53;;;;;;;15.50;9.07;;;0.80;99.90;;;;;;5007981;28;20100;-47
2024/01/29 00:25:20;;;;;;;12.98;8.35;;;0.80;99.90;;;;;;5004046;28;20073;-41
2024/01/29 00:27:47;;;;;;;14.50;7.80;;;0.90;99.90;;;;;;5007229;28;20460;-53
2024/01/29 00:30:14;;;;;;;12.75;8.57;;;1.00;99.90;;;;;;4985324;28;20687;-46
2024/01/29 00:32:41;;;;;;;10.75;6.68;;;1.00;99.90;;;;;;5006253;28;20071;-45
2024/01/29 00:35:08;;;;;;;9.77;6.55;;;1.10;99.90;;;;;;5005886;28;20050;-48
2024/01/29 00:37:35;;;;;;;11.18;6.72;;;1.10;99.90;;;;;;5006416;28;20045;-42
2024/01/29 00:40:04;;;;;;;12.13;6.57;;;1.10;99.90;;;;;;5002736;28;20077;-45
2024/01/29 00:42:32;;;;;;;10.15;6.03;;;1.10;99.90;;;;;;5007289;28;20046;-46
2024/01/29 00:44:59;;;;;;;11.45;6.70;;;1.20;99.90;;;;;;5003963;28;20064;-48
2024/01/29 00:47:26;;;;;;;8.82;6.18;;;1.20;99.90;;;;;;5005074;28;20038;-51
2024/01/29 00:49:53;;;;;;;10.27;6.50;;;1.20;99.90;;;;;;5001812;28;20057;-50
2024/01/29 00:52:20;;;;;;;8.50;6.25;;;1.20;99.90;;;;;;5004764;28;20185;-51
2024/01/29 00:54:47;;;;;;;9.85;6.47;;;1.10;99.90;;;;;;4987665;28;20038;-49
2024/01/29 00:57:15;;;;;;;10.75;6.35;;;1.10;99.90;;;;;;5006384;28;20061;-52
2024/01/29 00:59:43;;;;;;;11.38;6.45;;;1.10;99.90;;;;;;5006197;28;20069;-49
2024/01/29 01:02:10;;;;;;;11.23;7.32;;;1.10;99.90;;;;;;5003815;28;20132;-49
2024/01/29 01:04:38;;;;;;;10.85;6.40;;;1.00;99.90;;;;;;5005950;28;20069;-47
2024/01/29 01:07:05;;;;;;;9.35;6.47;;;0.90;99.90;;;;;;5001616;28;20129;-45
2024/01/29 01:09:32;;;;;;;11.32;6.50;;;0.90;99.90;;;;;;5008213;28;20421;-45
2024/01/29 01:11:59;;;;;;;11.48;6.93;;;0.80;99.90;;;;;;5006999;28;20046;-49
2024/01/29 01:14:26;;;;;;;10.30;6.95;;;0.90;99.90;;;;;;5009612;28;20042;-47
2024/01/29 01:16:53;;;;;;;13.43;7.72;;;0.80;99.90;;;;;;5008665;28;20069;-44
2024/01/29 01:19:20;;;;;;;11.63;7.70;;;0.80;99.90;;;;;;5011909;28;20058;-52
2024/01/29 01:21:48;;;;;;;12.68;7.57;;;0.70;99.90;;;;;;5011762;28;20085;-46
2024/01/29 01:24:15;;;;;;;11.77;7.72;;;0.70;99.90;;;;;;5011366;28;20479;-49
2024/01/29 01:26:42;;;;;;;11.40;7.80;;;0.70;99.90;;;;;;5010877;28;20053;-48
2024/01/29 01:29:09;;;;;;;10.60;7.43;;;0.70;99.90;;;;;;5007646;28;20128;-47
2024/01/29 01:31:36;;;;;;;11.02;7.55;;;0.60;99.90;;;;;;4987595;28;20586;-48
2024/01/29 01:34:03;;;;;;;9.00;7.13;;;0.60;99.90;;;;;;5007416;28;20208;-53
2024/01/29 01:36:31;;;;;;;9.02;6.97;;;0.60;99.90;;;;;;5007845;28;20498;-49
2024/01/29 01:38:59;;;;;;;10.27;7.20;;;0.60;99.90;;;;;;5011004;28;20057;-47
2024/01/29 01:41:26;;;;;;;10.90;6.95;;;0.60;99.90;;;;;;5009134;28;20046;-57
2024/01/29 01:43:52;;;;;;;11.75;7.93;;;0.60;99.90;;;;;;5008197;28;20093;-45
2024/01/29 01:46:21;;;;;;;9.75;7.50;;;0.70;99.90;;;;;;5009829;28;20077;-52
2024/01/29 01:48:51;;;;;;;12.43;7.38;;;0.70;99.90;;;;;;5014151;28;20046;-44
2024/01/29 01:51:20;;;;;;;10.25;6.95;;;0.70;99.90;;;;;;5007766;28;20046;-49
2024/01/29 01:53:52;;;;;;;10.52;6.90;;;0.70;99.90;;;;;;4992120;28;20157;-51
2024/01/29 01:56:20;;;;;;;8.75;6.20;;;0.80;99.90;;;;;;5009912;28;20042;-49
2024/01/29 01:58:48;;;;;;;9.73;6.15;;;0.80;99.90;;;;;;5010582;28;20554;-47
2024/01/29 02:01:15;;;;;;;9.60;6.07;;;0.90;99.90;;;;;;5012933;28;20038;-49
2024/01/29 02:03:43;;;;;;;10.30;6.63;;;1.00;99.90;;;;;;5008335;28;20069;-46
2024/01/29 02:06:11;;;;;;;8.73;6.68;;;1.00;99.90;;;;;;5008533;28;20126;-45
2024/01/29 02:08:39;;;;;;;8.85;6.15;;;1.00;99.90;;;;;;5008224;28;20037;-51
2024/01/29 02:11:06;;;;;;;8.10;6.15;;;1.10;99.90;;;;;;5007009;28;20050;-48
2024/01/29 02:13:33;;;;;;;8.05;5.90;;;1.10;99.90;;;;;;5007817;28;20037;-49
2024/01/29 02:16:02;;;;;;;10.73;6.07;;;1.20;99.90;;;;;;5006927;28;20077;-51
2024/01/29 02:18:30;;;;;;;7.43;5.55;;;1.30;99.90;;;;;;5009478;28;20129;-46
2024/01/29 02:20:57;;;;;;;8.05;5.97;;;1.30;99.90;;;;;;5007017;28;20459;-45
2024/01/29 02:23:25;;;;;;;8.50;5.90;;;1.50;99.90;;;;;;5010795;28;20101;-48
2024/01/29 02:25:52;;;;;;;7.20;6.20;;;1.50;99.90;;;;;;5008952;28;20046;-46
2024/01/29 02:28:19;;;;;;;8.35;5.78;;;1.50;99.90;;;;;;5005547;28;20174;-51
2024/01/29 02:30:46;;;;;;;7.43;5.30;;;1.50;99.90;;;;;;5000109;28;20050;-48
2024/01/29 02:33:13;;;;;;;7.38;5.55;;;1.50;99.90;;;;;;5003414;28;20046;-49
2024/01/29 02:35:40;;;;;;;7.35;5.60;;;1.50;99.90;;;;;;5004363;28;20050;-50
2024/01/29 02:38:07;;;;;;;8.02;5.75;;;1.60;99.90;;;;;;5003731;28;20581;-48
2024/01/29 02:40:34;;;;;;;7.07;5.55;;;1.60;99.90;;;;;;5004836;28;20046;-48
2024/01/29 02:43:01;;;;;;;8.57;5.68;;;1.60;99.90;;;;;;5008023;28;20092;-46
2024/01/29 02:45:28;;;;;;;8.32;5.88;;;1.60;99.90;;;;;;5005570;28;20155;-45
2024/01/29 02:47:55;;;;;;;9.07;6.15;;;1.60;99.90;;;;;;5008325;28;20041;-48
2024/01/29 02:50:29;;;;;;;7.82;5.60;;;1.60;99.90;;;;;;5007779;28;20033;-48
2024/01/29 02:52:58;;;;;;;9.40;5.95;;;1.60;99.90;;;;;;5006539;28;20450;-48
2024/01/29 02:55:25;;;;;;;11.07;5.97;;;1.50;99.90;;;;;;5006061;28;20104;-50
2024/01/29 02:57:52;;;;;;;13.20;6.40;;;1.50;99.90;;;;;;5005432;28;20671;-46
2024/01/29 03:00:19;;;;;;;8.75;6.10;;;1.50;99.90;;;;;;5008870;28;20045;-45
2024/01/29 03:02:46;;;;;;;7.22;5.60;;;1.50;99.90;;;;;;5008015;28;20048;-51
2024/01/29 03:05:13;;;;;;;9.45;6.05;;;1.40;99.90;;;;;;5005012;28;20073;-50
2024/01/29 03:07:40;;;;;;;9.27;6.38;;;1.40;99.90;;;;;;5004812;28;20045;-50
2024/01/29 03:10:07;;;;;;;8.82;5.88;;;1.40;99.90;;;;;;5003528;28;20089;-50
2024/01/29 03:12:35;;;;;;;9.13;5.70;;;1.40;99.90;;;;;;5005799;28;20097;-46
2024/01/29 03:15:03;;;;;;;8.90;5.55;;;1.40;99.90;;;;;;5005393;28;20114;-48
2024/01/29 03:17:32;;;;;;;6.57;5.13;;;1.40;99.90;;;;;;5005885;28;20434;-51
2024/01/29 03:19:59;;;;;;;7.40;5.25;;;1.40;99.90;;;;;;5006143;28;20142;-50
2024/01/29 03:22:27;;;;;;;8.65;5.15;;;1.40;99.90;;;;;;5005294;28;20491;-50
2024/01/29 03:24:54;;;;;;;10.38;5.80;;;1.50;99.90;;;;;;5006378;28;20052;-49
2024/01/29 03:27:21;;;;;;;9.02;5.25;;;1.50;99.90;;;;;;4988501;28;20061;-45
2024/01/29 03:29:48;;;;;;;7.50;5.78;;;1.40;99.90;;;;;;5003737;28;20046;-47
2024/01/29 03:32:15;;;;;;;9.13;5.70;;;1.40;99.90;;;;;;5007369;28;20045;-52
2024/01/29 03:34:43;;;;;;;7.75;5.28;;;1.40;99.90;;;;;;5006165;28;20042;-46
2024/01/29 03:37:10;;;;;;;7.70;5.70;;;1.30;99.90;;;;;;5006714;28;20057;-50
2024/01/29 03:39:38;;;;;;;8.32;5.50;;;1.20;99.90;;;;;;5007164;28;20065;-46
2024/01/29 03:42:06;;;;;;;8.13;5.57;;;1.20;99.90;;;;;;5004777;28;20142;-50
2024/01/29 03:44:33;;;;;;;6.50;5.40;;;1.10;99.90;;;;;;5006237;28;20148;-53
2024/01/29 03:47:00;;;;;;;8.18;5.35;;;1.10;99.90;;;;;;5005418;28;20253;-49
2024/01/29 03:49:27;;;;;;;6.95;5.55;;;1.00;99.90;;;;;;5005103;28;20074;-48
2024/01/29 03:51:54;;;;;;;7.50;5.57;;;1.00;99.90;;;;;;5007146;28;20585;-49
2024/01/29 03:54:21;;;;;;;8.02;5.82;;;0.90;99.90;;;;;;4989309;28;20113;-48
2024/01/29 03:56:48;;;;;;;5.85;4.97;;;0.90;99.90;;;;;;5005670;28;20233;-46
2024/01/29 03:59:15;;;;;;;7.45;5.00;;;0.90;99.90;;;;;;4987154;28;20053;-50
2024/01/29 04:01:42;;;;;;;8.18;5.40;;;0.80;99.90;;;;;;5006654;28;20029;-48
2024/01/29 04:04:10;;;;;;;8.25;5.97;;;0.80;99.90;;;;;;5004876;28;20486;-45
2024/01/29 04:06:39;;;;;;;7.60;5.15;;;0.70;99.90;;;;;;5007208;28;20101;-49
2024/01/29 04:09:09;;;;;;;7.18;5.45;;;0.70;99.90;;;;;;5005070;28;20126;-47
2024/01/29 04:11:36;;;;;;;8.68;5.53;;;0.60;99.90;;;;;;5007514;28;20066;-51
2024/01/29 04:14:03;;;;;;;8.25;5.50;;;0.60;99.90;;;;;;5003253;28;20050;-55
2024/01/29 04:16:31;;;;;;;8.15;6.10;;;0.50;99.90;;;;;;5006535;28;20495;-49
2024/01/29 04:18:58;;;;;;;8.75;5.65;;;0.60;99.90;;;;;;5006204;28;20041;-46
2024/01/29 04:21:25;;;;;;;9.68;5.68;;;0.60;99.90;;;;;;5007190;28;20088;-44
2024/01/29 04:23:52;;;;;;;9.13;6.43;;;0.60;99.90;;;;;;4999928;28;20602;-50
2024/01/29 04:26:20;;;;;;;7.43;5.70;;;0.60;99.90;;;;;;5005372;28;20549;-53
2024/01/29 04:28:47;;;;;;;9.68;5.50;;;0.60;99.90;;;;;;5004903;28;20489;-50
2024/01/29 04:31:15;;;;;;;8.85;5.63;;;0.70;99.90;;;;;;5001154;28;20133;-50
2024/01/29 04:33:43;;;;;;;13.88;5.93;;;0.70;99.90;;;;;;5004535;28;20117;-51
2024/01/29 04:36:16;;;;;;;9.05;5.20;;;0.80;99.90;;;;;;5006239;28;20046;-47
2024/01/29 04:38:43;;;;;;;6.63;5.10;;;0.80;99.90;;;;;;5005312;28;20800;-49
2024/01/29 04:41:18;;;;;;;9.82;5.70;;;0.80;99.90;;;;;;5004339;28;20072;-48
2024/01/29 04:43:45;;;;;;;10.15;5.93;;;0.80;99.90;;;;;;5004244;28;20541;-52
2024/01/29 04:46:13;;;;;;;8.85;5.82;;;0.80;99.90;;;;;;5004406;28;20050;-49
2024/01/29 04:48:41;;;;;;;8.68;5.80;;;0.80;99.90;;;;;;5005896;28;20070;-45
2024/01/29 04:51:09;;;;;;;7.47;5.45;;;0.80;99.90;;;;;;5006155;28;20116;-53
2024/01/29 04:53:36;;;;;;;11.02;5.35;;;0.80;99.90;;;;;;5007183;28;20503;-46
2024/01/29 04:56:04;;;;;;;8.68;5.35;;;0.90;99.90;;;;;;5011470;28;20045;-52
2024/01/29 04:58:31;;;;;;;8.40;4.78;;;0.90;99.90;;;;;;5010683;28;20049;-46
2024/01/29 05:00:59;;;;;;;7.40;5.25;;;0.80;99.90;;;;;;5012001;28;20491;-46
2024/01/29 05:03:26;;;;;;;9.63;5.80;;;0.80;99.90;;;;;;5012524;28;20186;-47
2024/01/29 05:05:54;;;;;;;10.35;5.78;;;0.80;99.90;;;;;;5014580;28;20054;-50
2024/01/29 05:08:22;;;;;;;8.48;5.55;;;0.80;99.90;;;;;;5014480;28;20564;-53
2024/01/29 05:10:49;;;;;;;8.73;6.10;;;0.80;99.90;;;;;;5013232;28;20096;-48
2024/01/29 05:13:16;;;;;;;8.30;5.50;;;0.90;99.90;;;;;;5015865;28;20077;-50
2024/01/29 05:15:43;;;;;;;8.85;5.80;;;0.90;99.90;;;;;;5016812;28;20053;-46
2024/01/29 05:18:11;;;;;;;9.38;6.10;;;0.90;99.90;;;;;;5016225;28;20138;-49
2024/01/29 05:20:38;;;;;;;8.73;5.93;;;0.90;99.90;;;;;;5013184;28;20054;-48
2024/01/29 05:23:05;;;;;;;7.85;5.93;;;0.90;99.90;;;;;;5008172;28;20050;-41
2024/01/29 05:25:33;;;;;;;10.60;6.32;;;0.80;99.90;;;;;;5012134;28;20574;-50
2024/01/29 05:28:01;;;;;;;13.10;6.22;;;0.80;99.90;;;;;;5011975;28;20096;-54
2024/01/29 05:30:28;;;;;;;8.57;6.00;;;0.80;99.90;;;;;;5007008;28;20070;-45
2024/01/29 05:32:55;;;;;;;9.23;5.90;;;0.80;99.90;;;;;;5016722;28;20106;-50
2024/01/29 05:35:22;;;;;;;10.65;5.82;;;0.80;99.90;;;;;;5026220;28;20056;-49
2024/01/29 05:37:49;;;;;;;8.95;6.50;;;0.80;99.90;;;;;;5016158;28;20562;-48
2024/01/29 05:40:17;;;;;;;10.25;5.97;;;0.80;99.90;;;;;;5012501;28;20053;-45
2024/01/29 05:42:51;;;;;;;10.38;6.35;;;0.80;99.90;;;;;;5012298;28;20181;-46
2024/01/29 05:45:19;;;;;;;8.02;6.05;;;0.80;99.90;;;;;;5013567;28;20052;-51
2024/01/29 05:47:47;;;;;;;8.90;5.63;;;0.70;99.90;;;;;;5011893;28;20370;-46
2024/01/29 05:50:14;;;;;;;11.70;5.47;;;0.70;99.90;;;;;;5012886;28;20034;-48
2024/01/29 05:52:41;;;;;;;10.13;6.05;;;0.70;99.90;;;;;;5012326;28;20049;-50
2024/01/29 05:55:09;;;;;;;10.27;5.80;;;0.70;99.90;;;;;;5013753;28;20192;-50
2024/01/29 05:57:36;;;;;;;9.00;6.30;;;0.60;99.90;;;;;;5013395;28;20050;-48
2024/01/29 06:00:09;;;;;;;11.80;6.22;;;0.70;99.90;;;;;;5012316;28;20042;-48
2024/01/29 06:02:42;;;;;;;9.90;6.32;;;0.60;99.90;;;;;;4996415;28;20538;-48
2024/01/29 06:05:11;;;;;;;10.93;6.45;;;0.60;99.90;;;;;;5009187;28;20503;-47
2024/01/29 06:07:41;;;;;;;15.07;6.30;;;0.60;99.90;;;;;;5005087;28;20034;-45
2024/01/29 06:10:11;;;;;;;10.93;5.60;;;0.60;99.90;;;;;;5006672;28;20046;-46
2024/01/29 06:12:38;;;;;;;10.88;6.30;;;0.60;99.90;;;;;;5012949;28;20113;-45
2024/01/29 06:15:06;;;;;;;12.35;5.88;;;0.60;99.90;;;;;;5013646;28;20050;-49
2024/01/29 06:17:33;;;;;;;7.65;5.50;;;0.60;99.90;;;;;;5013977;28;20259;-46
2024/01/29 06:20:00;;;;;;;10.88;6.03;;;0.60;99.90;;;;;;5017328;28;20045;-51
2024/01/29 06:22:43;;;;;;;8.98;5.82;;;0.60;99.90;;;;;;5016462;28;20673;-45
2024/01/29 06:25:10;;;;;;;9.10;5.72;;;0.50;99.90;;;;;;4997880;28;20102;-47
2024/01/29 06:27:38;;;;;;;6.93;5.43;;;0.60;99.90;;;;;;5009652;28;20125;-45
2024/01/29 06:30:06;;;;;;;8.73;5.50;;;0.50;99.90;;;;;;5005201;28;20054;-47
2024/01/29 06:32:33;;;;;;;11.65;5.85;;;0.50;99.90;;;;;;5011082;28;20037;-46
2024/01/29 06:35:00;;;;;;;11.35;5.68;;;0.50;99.90;;;;;;5010193;28;20050;-44
2024/01/29 06:37:27;;;;;;;8.63;5.80;;;0.50;99.90;;;;;;5009999;28;20417;-50
2024/01/29 06:39:54;;;;;;;11.00;6.50;;;0.50;99.90;;;;;;5010782;28;20494;-45
2024/01/29 06:42:21;;;;;;;9.55;5.78;;;0.40;99.90;;;;;;5010251;28;20065;-44
2024/01/29 06:44:48;;;;;;;8.68;6.38;;;0.40;99.90;;;;;;5008356;28;20154;-50
2024/01/29 06:47:17;;;;;;;16.63;6.65;;;0.30;99.90;;;;;;5006405;28;20495;-48
2024/01/29 06:49:45;;;;;;;17.33;8.07;;;0.30;99.90;;;;;;5007790;28;20094;-48
2024/01/29 06:52:12;;;;;;;12.57;6.97;;;0.30;99.90;;;;;;5014482;28;20081;-44
2024/01/29 06:54:44;;;;;;;;;;;0.30;99.90;;;;;;5008948;28;20558;-44
2024/01/29 06:57:11;;;;;;;14.95;6.53;;;0.30;99.90;;;;;;5005892;28;19931;-48
2024/01/29 06:59:38;;;;;;;11.88;6.82;;;0.30;99.90;;;;;;5006273;28;20058;-52
2024/01/29 07:02:07;;;;;;;12.75;7.47;;;0.30;99.90;;;;;;5009645;28;20140;-47
2024/01/29 07:04:34;;;;;;;12.80;7.13;;;0.40;99.90;;;;;;5006443;28;20483;-45
2024/01/29 07:07:02;;;;;;;13.10;6.60;;;0.50;99.90;;;;;;5010228;28;20220;-47
2024/01/29 07:09:31;;;;;;;11.55;6.80;;;0.50;99.90;;;;;;5009530;28;20045;-48
2024/01/29 07:11:58;;;;;;;9.25;5.97;;;0.60;99.90;;;;;;5009589;28;20045;-47
2024/01/29 07:14:25;;;;;;;9.48;6.20;;;0.60;99.90;;;;;;5009272;28;20190;-44
2024/01/29 07:16:52;;;;;;;14.05;6.43;;;0.70;99.90;;;;;;5007358;28;20510;-49
2024/01/29 07:19:25;;;;;;;11.27;6.80;;;0.70;99.90;;;;;;5010328;28;20052;-46
2024/01/29 07:21:53;;;;;;;11.70;6.60;;;0.70;99.90;;;;;;5009575;28;20085;-44
2024/01/29 07:24:20;;;;;;;10.13;6.30;;;0.80;99.90;;;;;;5009140;28;20066;-52
2024/01/29 07:26:47;;;;;;;11.32;7.35;;;0.80;99.90;;;;;;5009720;28;20093;-51
2024/01/29 07:29:15;;;;;;;9.75;6.80;;;0.90;99.90;;;;;;5009448;28;20077;-45
2024/01/29 07:31:42;;;;;;;10.45;6.57;;;1.00;99.90;;;;;;5010232;28;20069;-52
2024/01/29 07:34:09;;;;;;;10.80;5.80;;;1.00;99.90;;;;;;5010133;28;20046;-51
2024/01/29 07:36:39;;;;;;;11.32;6.43;;;1.10;99.90;;;;;;5012916;28;20152;-51
2024/01/29 07:39:06;;;;;;;9.50;6.60;;;1.20;99.90;;;;;;5010696;28;20045;-46
2024/01/29 07:41:33;;;;;;;8.25;5.90;;;1.30;99.90;;;;;;5011474;28;20042;-46
2024/01/29 07:44:00;;;;;;;10.07;6.32;;;1.30;99.90;;;;;;5010711;28;20598;-47
2024/01/29 07:46:27;;;;;;;12.35;6.38;;;1.40;99.90;;;;;;5011023;28;20049;-46
2024/01/29 07:48:55;;;;;;;9.50;5.97;;;1.40;99.90;;;;;;5012815;28;20362;-45
2024/01/29 07:51:22;;;;;;;10.27;6.10;;;1.50;99.90;;;;;;5012033;28;20138;-45
2024/01/29 07:53:49;;;;;;;9.38;5.65;;;1.60;99.90;;;;;;5008420;28;20400;-51
2024/01/29 07:56:16;;;;;;;8.90;6.00;;;1.60;99.90;;;;;;5010235;28;20054;-46
2024/01/29 07:58:43;;;;;;;10.52;6.40;;;1.70;99.90;;;;;;5008918;28;20073;-51
2024/01/29 08:01:10;;;;;;;7.78;5.72;;;1.80;99.90;;;;;;5010872;28;20054;-51
2024/01/29 08:03:37;;;;;;;9.98;5.75;;;1.90;99.90;;;;;;5008076;28;20038;-48
2024/01/29 08:06:05;;;;;;;8.77;6.30;;;2.00;99.90;;;;;;5010691;28;20041;-48
2024/01/29 08:08:36;;;;;;;8.68;6.03;;;2.10;99.90;;;;;;5010937;28;20049;-45
2024/01/29 08:11:03;;;;;;;8.85;6.40;;;2.20;99.90;;;;;;5010116;28;20050;-50
2024/01/29 08:13:30;;;;;;;10.27;6.65;;;2.20;99.90;;;;;;5009792;28;20176;-43
2024/01/29 08:15:59;;;;;;;10.35;6.70;;;2.30;99.90;;;;;;5008767;28;20101;-50
2024/01/29 08:18:26;;;;;;;13.23;7.25;;;2.40;99.90;;;;;;5007356;28;20132;-49
2024/01/29 08:20:55;;;;;;;10.57;6.50;;;2.40;99.90;;;;;;5009731;28;20148;-53
2024/01/29 08:23:23;;;;;;;12.52;6.40;;;2.50;99.90;;;;;;5006034;28;20109;-47
2024/01/29 08:25:50;;;;;;;10.27;6.18;;;2.50;99.90;;;;;;4987878;28;20066;-47
2024/01/29 08:28:17;;;;;;;9.18;5.93;;;2.60;99.90;;;;;;5006324;28;20042;-51
2024/01/29 08:30:44;;;;;;;8.63;5.93;;;2.70;99.90;;;;;;5006050;28;20064;-49
2024/01/29 08:33:11;;;;;;;13.95;7.10;;;2.80;99.90;;;;;;4988952;28;20426;-51
2024/01/29 08:35:39;;;;;;;7.05;6.00;;;2.80;99.90;;;;;;5007752;28;20045;-48
2024/01/29 08:38:07;;;;;;;11.52;6.57;;;2.90;99.90;;;;;;5004435;28;20117;-44
2024/01/29 08:40:35;;;;;;;13.88;6.95;;;3.00;99.90;;;;;;5007537;28;20034;-49
2024/01/29 08:43:02;;;;;;;13.50;6.50;;;3.10;99.90;;;;;;5008292;28;20061;-49
2024/01/29 08:45:30;;;;;;;8.38;6.60;;;3.10;99.90;;;;;;5012216;28;20463;-47
2024/01/29 08:47:58;;;;;;;15.15;6.97;;;3.10;99.90;;;;;;5015171;28;20068;-48
2024/01/29 08:50:26;;;;;;;9.13;6.47;;;3.20;99.90;;;;;;5011308;28;20078;-44
2024/01/29 08:52:53;;;;;;;15.32;7.63;;;3.30;99.90;;;;;;5008948;28;20129;-50
2024/01/29 08:55:19;;;;;;;12.93;7.85;;;3.40;99.90;;;;;;5006959;28;20073;-46
2024/01/29 08:57:46;;;;;;;10.18;6.95;;;3.40;99.90;;;;;;5005073;28;20046;-45
2024/01/29 09:00:14;;;;;;;10.32;7.50;;;3.40;99.90;;;;;;5002463;28;20050;-43
2024/01/29 09:02:42;;;;;;;11.05;7.72;;;3.50;99.90;;;;;;5007744;28;20090;-47
2024/01/29 09:05:09;;;;;;;13.38;7.45;;;3.60;99.90;;;;;;5007669;28;20057;-53
2024/01/29 09:07:36;;;;;;;12.25;7.25;;;3.70;99.90;;;;;;5004712;28;20049;-46
2024/01/29 09:10:03;;;;;;;10.75;7.28;;;3.70;99.90;;;;;;5009293;28;20104;-47
2024/01/29 09:12:30;;;;;;;11.75;7.00;;;3.90;99.90;;;;;;5012008;28;20034;-51
2024/01/29 09:14:57;;;;;;;11.50;7.28;;;4.00;99.90;;;;;;5009744;28;20066;-48
2024/01/29 09:17:24;;;;;;;11.95;7.57;;;4.20;99.90;;;;;;5007089;28;20050;-44
2024/01/29 09:19:51;;;;;;;10.48;6.75;;;4.30;99.90;;;;;;5002434;28;20045;-47
2024/01/29 09:22:19;;;;;;;10.70;7.00;;;4.40;99.90;;;;;;5008102;28;20046;-52
2024/01/29 09:24:46;;;;;;;12.85;7.28;;;4.60;99.90;;;;;;5007426;28;20408;-51
2024/01/29 09:27:14;;;;;;;9.88;7.32;;;4.80;99.90;;;;;;4996113;28;20041;-48
2024/01/29 09:29:40;;;;;;;11.90;6.80;;;4.90;99.90;;;;;;5010048;28;20113;-51
2024/01/29 09:32:08;;;;;;;14.13;7.55;;;5.10;99.90;;;;;;5001729;28;20042;-45
2024/01/29 09:34:35;;;;;;;10.20;6.70;;;5.20;99.90;;;;;;5005607;28;20077;-51
2024/01/29 09:37:02;;;;;;;13.75;7.28;;;5.30;99.90;;;;;;5007700;28;20045;-46
2024/01/29 09:39:29;;;;;;;11.35;7.20;;;5.40;99.90;;;;;;5011058;28;20145;-53
2024/01/29 09:42:04;;;;;;;14.23;7.05;;;5.60;99.90;;;;;;4995748;28;20134;-51
2024/01/29 09:44:38;;;;;;;9.63;7.18;;;5.70;99.90;;;;;;5012856;28;20107;-52
2024/01/29 09:47:06;;;;;;;9.80;7.15;;;5.80;99.90;;;;;;5008214;28;20058;-48
2024/01/29 09:49:37;;;;;;;8.32;6.53;;;5.90;99.90;;;;;;5011160;28;20125;-48
2024/01/29 09:52:05;;;;;;;10.90;6.82;;;6.10;99.90;;;;;;5013154;28;20128;-52
2024/01/29 09:54:37;;;;;;;12.05;6.88;;;6.20;99.90;;;;;;5012183;28;20046;-52
2024/01/29 09:57:05;;;;;;;12.45;6.30;;;6.30;99.90;;;;;;5012206;28;20388;-52
2024/01/29 09:59:32;;;;;;;11.07;6.70;;;6.40;99.90;;;;;;5012854;28;20500;-52
2024/01/29 10:02:00;;;;;;;12.43;6.90;;;6.60;99.90;;;;;;5012226;28;20491;-50
2024/01/29 10:04:27;;;;;;;11.27;6.20;;;6.70;99.90;;;;;;5010169;28;20036;-45
2024/01/29 10:06:55;;;;;;;9.23;6.40;;;6.80;99.90;;;;;;5010950;28;20064;-50
2024/01/29 10:09:22;;;;;;;8.68;6.38;;;7.00;99.90;;;;;;5009046;28;20046;-51
2024/01/29 10:11:50;;;;;;;9.23;6.88;;;7.10;99.90;;;;;;5010127;28;20125;-48
2024/01/29 10:14:17;;;;;;;10.68;6.20;;;7.20;99.90;;;;;;4995926;28;20122;-47
2024/01/29 10:16:44;;;;;;;8.20;6.68;;;7.40;99.90;;;;;;5014518;28;20034;-49
2024/01/29 10:19:12;;;;;;;8.10;6.63;;;7.50;99.90;;;;;;5013772;28;20050;-49
2024/01/29 10:21:42;;;;;;;8.32;6.40;;;7.60;99.90;;;;;;5013305;28;20467;-50
2024/01/29 10:24:14;;;;;;;9.00;6.78;;;7.70;99.90;;;;;;5010763;28;20056;-50
2024/01/29 10:26:42;;;;;;;12.60;7.43;;;7.90;99.90;;;;;;5011430;28;20097;-52
2024/01/29 10:29:10;;;;;;;11.10;8.15;;;8.00;99.90;;;;;;5011079;28;20097;-50
2024/01/29 10:31:38;;;;;;;11.13;6.93;;;8.20;99.90;;;;;;5006622;28;20061;-52
2024/01/29 10:34:05;;;;;;;8.88;6.80;;;8.40;99.90;;;;;;5010295;28;20056;-51
2024/01/29 10:36:34;;;;;;;10.07;7.43;;;8.60;99.90;;;;;;5009063;28;20152;-46
2024/01/29 10:39:03;;;;;;;7.93;6.70;;;8.80;99.90;;;;;;5013335;28;20049;-46
2024/01/29 10:41:32;;;;;;;14.10;7.50;;;9.00;99.90;;;;;;5011221;28;20050;-43
2024/01/29 10:44:03;;;;;;;8.60;7.40;;;9.10;99.90;;;;;;5006982;28;20160;-47
2024/01/29 10:46:38;;;;;;;10.87;7.60;;;9.20;99.90;;;;;;5007978;28;20339;-48
2024/01/29 10:49:06;;;;;;;10.80;7.57;;;9.30;99.90;;;;;;5003716;28;20046;-53
2024/01/29 10:51:34;;;;;;;8.10;7.00;;;9.40;99.90;;;;;;5007799;28;20120;-48
2024/01/29 10:54:02;;;;;;;7.28;6.57;;;9.30;99.90;;;;;;5003256;28;20046;-47
2024/01/29 10:56:30;;;;;;;8.20;6.47;;;9.40;99.90;;;;;;5009202;28;20046;-47
2024/01/29 10:58:59;;;;;;;8.32;7.15;;;9.50;99.90;;;;;;5013978;28;20546;-46
2024/01/29 11:01:32;;;;;;;12.30;7.47;;;9.60;99.90;;;;;;5012814;28;20125;-45
2024/01/29 11:04:00;;;;;;;10.15;6.93;;;9.70;99.90;;;;;;5015408;28;20125;-48
2024/01/29 11:06:40;;;;;;;9.43;6.95;;;10.00;99.90;;;;;;5011442;28;20037;-54
2024/01/29 11:09:12;;;;;;;9.35;8.35;;;10.30;99.90;;;;;;4993923;28;20411;-45
2024/01/29 11:11:42;;;;;;;9.93;7.97;;;10.60;99.90;;;;;;5011751;28;20060;-47
2024/01/29 11:14:09;;;;;;;9.23;7.35;;;11.00;99.90;;;;;;5006787;28;20050;-44
2024/01/29 11:16:37;;;;;;;10.85;7.47;;;11.50;99.90;;;;;;5006219;28;20046;-49
2024/01/29 11:19:05;;;;;;;10.02;8.15;;;11.70;99.90;;;;;;5003935;28;20053;-45
2024/01/29 11:21:32;;;;;;;11.70;7.35;;;12.20;99.90;;;;;;5006231;28;20046;-46
2024/01/29 11:24:00;;;;;;;12.50;8.30;;;12.60;99.90;;;;;;5007200;28;20046;-49
2024/01/29 11:26:28;;;;;;;8.48;7.50;;;12.90;99.90;;;;;;5003802;28;20054;-52
2024/01/29 11:28:57;;;;;;;9.30;8.32;;;12.70;99.90;;;;;;5009206;28;20054;-49
2024/01/29 11:31:37;;;;;;;9.05;7.82;;;13.40;99.90;;;;;;5004838;28;20099;-50
2024/01/29 11:34:05;;;;;;;9.25;7.70;;;13.80;99.90;;;;;;5009367;28;20073;-49
2024/01/29 11:36:36;;;;;;;10.55;8.52;;;14.20;99.90;;;;;;5011619;28;20459;-50
2024/01/29 11:39:05;;;;;;;10.25;9.00;;;14.40;99.70;;;;;;5003147;28;20042;-45
2024/01/29 11:41:33;;;;;;;13.32;10.13;;;14.90;98.30;;;;;;5008976;28;20101;-52
2024/01/29 11:44:01;;;;;;;12.07;10.15;;;15.00;97.70;;;;;;5006039;28;20229;-50
2024/01/29 11:46:29;;;;;;;10.60;9.50;;;15.20;97.40;;;;;;5007208;28;20073;-51
2024/01/29 11:49:00;;;;;;;10.40;8.23;;;15.50;96.20;;;;;;5007800;28;20076;-48
2024/01/29 11:51:28;;;;;;;11.05;8.60;;;15.30;93.80;;;;;;5006820;28;20049;-48
2024/01/29 11:53:55;;;;;;;9.73;8.70;;;15.30;94.90;;;;;;5007091;28;20038;-52
2024/01/29 11:56:22;;;;;;;10.43;9.25;;;15.60;93.60;;;;;;5006620;28;20145;-47
2024/01/29 11:59:00;;;;;;;10.00;8.43;;;15.90;93.10;;;;;;5006399;28;20566;-48
2024/01/29 12:01:28;;;;;;;8.68;7.88;;;16.00;92.30;;;;;;5005412;28;20309;-49
2024/01/29 12:03:56;;;;;;;11.43;8.38;;;16.20;91.60;;;;;;5007536;28;20116;-50
2024/01/29 12:06:23;;;;;;;9.88;8.65;;;16.30;91.30;;;;;;5005954;28;20145;-48
2024/01/29 12:08:53;;;;;;;9.50;8.27;;;16.40;91.10;;;;;;5006705;28;20411;-42
2024/01/29 12:11:21;;;;;;;11.18;8.95;;;16.70;90.50;;;;;;5005092;28;20101;-49
2024/01/29 12:13:49;;;;;;;9.80;6.97;;;17.00;88.50;;;;;;4986914;28;20044;-51
2024/01/29 12:16:16;;;;;;;9.35;8.32;;;17.40;87.60;;;;;;5004428;28;20128;-47
2024/01/29 12:18:44;;;;;;;9.15;8.23;;;17.60;85.80;;;;;;5009138;28;20041;-45
2024/01/29 12:21:11;;;;;;;10.88;8.35;;;17.90;84.30;;;;;;5005301;28;20046;-50
2024/01/29 12:23:38;;;;;;;11.77;8.18;;;18.50;80.60;;;;;;5006141;28;20038;-46
2024/01/29 12:26:05;;;;;;;9.95;8.60;;;18.70;80.90;;;;;;5005244;28;20577;-47
2024/01/29 12:28:33;;;;;;;9.68;8.55;;;18.70;79.70;;;;;;5008732;28;20120;-46
2024/01/29 12:31:06;;;;;;;10.90;8.13;;;18.80;77.80;;;;;;5007547;28;20103;-47
2024/01/29 12:33:35;;;;;;;9.68;8.70;;;19.10;76.00;;;;;;5006608;28;20049;-50
2024/01/29 12:36:13;;;;;;;9.60;8.55;;;19.00;75.30;;;;;;5001358;28;20041;-49
2024/01/29 12:38:42;;;;;;;9.18;8.10;;;18.90;75.80;;;;;;5003185;28;20042;-48
2024/01/29 12:41:09;;;;;;;10.40;8.65;;;19.20;74.90;;;;;;5003088;28;20156;-51
2024/01/29 12:43:38;;;;;;;10.60;9.50;;;19.70;73.60;;;;;;5004494;28;20045;-47
2024/01/29 12:46:08;;;;;;;9.23;8.05;;;20.10;72.20;;;;;;5006165;28;20467;-52
2024/01/29 12:48:36;;;;;;;10.57;9.27;;;20.30;72.80;;;;;;5006560;28;20062;-46
2024/01/29 12:51:04;;;;;;;10.15;8.73;;;20.40;69.60;;;;;;5007301;28;20140;-51
2024/01/29 12:53:32;;;;;;;10.48;8.48;;;21.20;67.90;;;;;;5005521;28;20046;-49